sensor_id;sensor_type;location;lat;lon;timestamp;P1;durP1;ratioP1;P2;durP2;ratioP2
483;SDS011;228;48.922;12.198;2023-02-18T00:01:10;2.00;;;1.70;;
483;SDS011;228;48.922;12.198;2023-02-18T00:03:39;1.83;;;1.57;;
483;SDS011;228;48.922;12.198;2023-02-18T00:06:21;1.80;;;1.70;;
483;SDS011;228;48.922;12.198;2023-02-18T00:08:50;2.07;;;1.73;;
483;SDS011;228;48.922;12.198;2023-02-18T00:11:18;3.57;;;1.80;;
483;SDS011;228;48.922;12.198;2023-02-18T00:13:52;2.67;;;1.90;;
483;SDS011;228;48.922;12.198;2023-02-18T00:16:24;2.73;;;1.80;;
483;SDS011;228;48.922;12.198;2023-02-18T00:18:56;2.70;;;2.23;;
483;SDS011;228;48.922;12.198;2023-02-18T00:21:24;5.53;;;2.00;;
483;SDS011;228;48.922;12.198;2023-02-18T00:23:51;3.00;;;1.90;;
483;SDS011;228;48.922;12.198;2023-02-18T00:26:18;2.63;;;2.03;;
483;SDS011;228;48.922;12.198;2023-02-18T00:28:45;2.40;;;2.10;;
483;SDS011;228;48.922;12.198;2023-02-18T00:31:14;2.27;;;2.07;;
483;SDS011;228;48.922;12.198;2023-02-18T00:33:43;2.33;;;2.03;;
483;SDS011;228;48.922;12.198;2023-02-18T00:36:11;2.73;;;2.03;;
483;SDS011;228;48.922;12.198;2023-02-18T00:38:47;2.60;;;2.10;;
483;SDS011;228;48.922;12.198;2023-02-18T00:41:16;3.07;;;1.97;;
483;SDS011;228;48.922;12.198;2023-02-18T00:43:43;2.13;;;1.93;;
483;SDS011;228;48.922;12.198;2023-02-18T00:46:09;2.20;;;1.90;;
483;SDS011;228;48.922;12.198;2023-02-18T00:48:36;3.27;;;1.70;;
483;SDS011;228;48.922;12.198;2023-02-18T00:51:02;2.73;;;1.67;;
483;SDS011;228;48.922;12.198;2023-02-18T00:53:29;1.97;;;1.77;;
483;SDS011;228;48.922;12.198;2023-02-18T00:55:56;1.93;;;1.70;;
483;SDS011;228;48.922;12.198;2023-02-18T00:58:22;2.37;;;1.73;;
483;SDS011;228;48.922;12.198;2023-02-18T01:00:48;2.40;;;1.70;;
483;SDS011;228;48.922;12.198;2023-02-18T01:03:15;4.07;;;2.23;;
483;SDS011;228;48.922;12.198;2023-02-18T01:05:42;2.20;;;1.90;;
483;SDS011;228;48.922;12.198;2023-02-18T01:08:08;2.17;;;1.70;;
483;SDS011;228;48.922;12.198;2023-02-18T01:10:39;1.63;;;1.53;;
483;SDS011;228;48.922;12.198;2023-02-18T01:13:09;2.60;;;1.70;;
483;SDS011;228;48.922;12.198;2023-02-18T01:15:37;3.00;;;1.70;;
483;SDS011;228;48.922;12.198;2023-02-18T01:18:05;2.40;;;2.00;;
483;SDS011;228;48.922;12.198;2023-02-18T01:20:33;3.67;;;1.87;;
483;SDS011;228;48.922;12.198;2023-02-18T01:23:01;2.13;;;1.70;;
483;SDS011;228;48.922;12.198;2023-02-18T01:25:28;2.07;;;1.87;;
483;SDS011;228;48.922;12.198;2023-02-18T01:27:55;2.73;;;1.90;;
483;SDS011;228;48.922;12.198;2023-02-18T01:30:21;1.90;;;1.70;;
483;SDS011;228;48.922;12.198;2023-02-18T01:32:48;2.53;;;1.70;;
483;SDS011;228;48.922;12.198;2023-02-18T01:35:15;2.23;;;1.80;;
483;SDS011;228;48.922;12.198;2023-02-18T01:37:43;3.80;;;1.90;;
483;SDS011;228;48.922;12.198;2023-02-18T01:40:11;2.23;;;1.80;;
483;SDS011;228;48.922;12.198;2023-02-18T01:42:40;2.23;;;1.70;;
483;SDS011;228;48.922;12.198;2023-02-18T01:47:58;1.77;;;1.67;;
483;SDS011;228;48.922;12.198;2023-02-18T01:50:57;3.00;;;2.10;;
483;SDS011;228;48.922;12.198;2023-02-18T01:54:16;2.33;;;1.90;;
483;SDS011;228;48.922;12.198;2023-02-18T01:56:54;3.47;;;1.70;;
483;SDS011;228;48.922;12.198;2023-02-18T01:59:35;2.40;;;2.00;;
483;SDS011;228;48.922;12.198;2023-02-18T02:02:05;2.73;;;2.07;;
483;SDS011;228;48.922;12.198;2023-02-18T02:04:35;2.00;;;1.80;;
483;SDS011;228;48.922;12.198;2023-02-18T02:07:01;2.10;;;1.90;;
483;SDS011;228;48.922;12.198;2023-02-18T02:09:28;2.73;;;2.17;;
483;SDS011;228;48.922;12.198;2023-02-18T02:33:14;3.67;;;2.07;;
483;SDS011;228;48.922;12.198;2023-02-18T02:36:11;2.47;;;1.90;;
483;SDS011;228;48.922;12.198;2023-02-18T02:38:53;2.33;;;1.77;;
483;SDS011;228;48.922;12.198;2023-02-18T02:41:32;3.77;;;1.90;;
483;SDS011;228;48.922;12.198;2023-02-18T02:46:47;2.27;;;2.07;;
483;SDS011;228;48.922;12.198;2023-02-18T02:51:49;2.10;;;1.90;;
483;SDS011;228;48.922;12.198;2023-02-18T02:54:34;1.90;;;1.63;;
483;SDS011;228;48.922;12.198;2023-02-18T02:59:59;1.77;;;1.60;;
483;SDS011;228;48.922;12.198;2023-02-18T03:11:29;2.90;;;1.80;;
483;SDS011;228;48.922;12.198;2023-02-18T03:14:06;1.57;;;1.47;;
483;SDS011;228;48.922;12.198;2023-02-18T03:16:50;2.73;;;1.73;;
483;SDS011;228;48.922;12.198;2023-02-18T03:19:27;1.50;;;1.40;;
483;SDS011;228;48.922;12.198;2023-02-18T03:22:10;1.73;;;1.53;;
483;SDS011;228;48.922;12.198;2023-02-18T03:24:44;2.83;;;1.70;;
483;SDS011;228;48.922;12.198;2023-02-18T03:27:21;2.20;;;1.50;;
483;SDS011;228;48.922;12.198;2023-02-18T03:30:12;2.00;;;1.50;;
483;SDS011;228;48.922;12.198;2023-02-18T03:32:59;1.87;;;1.40;;
483;SDS011;228;48.922;12.198;2023-02-18T03:35:30;1.63;;;1.50;;
483;SDS011;228;48.922;12.198;2023-02-18T03:38:05;1.43;;;1.33;;
483;SDS011;228;48.922;12.198;2023-02-18T03:40:41;2.10;;;1.50;;
483;SDS011;228;48.922;12.198;2023-02-18T03:43:07;1.40;;;1.30;;
483;SDS011;228;48.922;12.198;2023-02-18T03:45:33;1.97;;;1.60;;
483;SDS011;228;48.922;12.198;2023-02-18T03:47:59;1.47;;;1.30;;
483;SDS011;228;48.922;12.198;2023-02-18T03:50:26;1.40;;;1.30;;
483;SDS011;228;48.922;12.198;2023-02-18T03:52:52;1.50;;;1.40;;
483;SDS011;228;48.922;12.198;2023-02-18T03:55:19;1.90;;;1.53;;
483;SDS011;228;48.922;12.198;2023-02-18T03:57:45;1.33;;;1.23;;
483;SDS011;228;48.922;12.198;2023-02-18T04:00:11;1.50;;;1.40;;
483;SDS011;228;48.922;12.198;2023-02-18T04:02:40;1.57;;;1.40;;
483;SDS011;228;48.922;12.198;2023-02-18T04:05:07;1.23;;;1.13;;
483;SDS011;228;48.922;12.198;2023-02-18T04:07:33;1.50;;;1.40;;
483;SDS011;228;48.922;12.198;2023-02-18T04:10:00;1.33;;;1.20;;
483;SDS011;228;48.922;12.198;2023-02-18T04:12:25;2.30;;;1.47;;
483;SDS011;228;48.922;12.198;2023-02-18T04:14:51;2.53;;;1.30;;
483;SDS011;228;48.922;12.198;2023-02-18T04:17:18;1.40;;;1.20;;
483;SDS011;228;48.922;12.198;2023-02-18T04:19:44;1.40;;;1.30;;
483;SDS011;228;48.922;12.198;2023-02-18T04:22:09;1.40;;;1.30;;
483;SDS011;228;48.922;12.198;2023-02-18T04:24:35;1.50;;;1.40;;
483;SDS011;228;48.922;12.198;2023-02-18T04:27:01;1.30;;;1.20;;
483;SDS011;228;48.922;12.198;2023-02-18T04:29:28;1.30;;;1.20;;
483;SDS011;228;48.922;12.198;2023-02-18T04:31:54;1.40;;;1.27;;
483;SDS011;228;48.922;12.198;2023-02-18T04:34:20;1.40;;;1.27;;
483;SDS011;228;48.922;12.198;2023-02-18T04:36:46;2.70;;;1.23;;
483;SDS011;228;48.922;12.198;2023-02-18T04:39:12;1.23;;;1.10;;
483;SDS011;228;48.922;12.198;2023-02-18T04:41:38;1.47;;;1.37;;
483;SDS011;228;48.922;12.198;2023-02-18T04:44:04;1.90;;;1.50;;
483;SDS011;228;48.922;12.198;2023-02-18T04:46:30;1.40;;;1.30;;
483;SDS011;228;48.922;12.198;2023-02-18T04:48:57;1.50;;;1.40;;
483;SDS011;228;48.922;12.198;2023-02-18T04:51:23;1.73;;;1.50;;
483;SDS011;228;48.922;12.198;2023-02-18T04:53:49;1.70;;;1.60;;
483;SDS011;228;48.922;12.198;2023-02-18T04:56:15;1.60;;;1.50;;
483;SDS011;228;48.922;12.198;2023-02-18T04:58:41;1.73;;;1.40;;
483;SDS011;228;48.922;12.198;2023-02-18T05:01:06;1.97;;;1.73;;
483;SDS011;228;48.922;12.198;2023-02-18T05:03:32;2.30;;;2.10;;
483;SDS011;228;48.922;12.198;2023-02-18T05:05:59;2.10;;;1.70;;
483;SDS011;228;48.922;12.198;2023-02-18T05:08:25;3.53;;;1.97;;
483;SDS011;228;48.922;12.198;2023-02-18T05:10:51;4.10;;;2.17;;
483;SDS011;228;48.922;12.198;2023-02-18T05:13:17;2.53;;;2.27;;
483;SDS011;228;48.922;12.198;2023-02-18T05:15:43;2.67;;;2.30;;
483;SDS011;228;48.922;12.198;2023-02-18T05:18:09;2.80;;;2.03;;
483;SDS011;228;48.922;12.198;2023-02-18T05:20:35;3.03;;;2.30;;
483;SDS011;228;48.922;12.198;2023-02-18T05:23:01;2.80;;;2.30;;
483;SDS011;228;48.922;12.198;2023-02-18T05:25:27;3.47;;;2.33;;
483;SDS011;228;48.922;12.198;2023-02-18T05:27:53;2.23;;;2.03;;
483;SDS011;228;48.922;12.198;2023-02-18T05:30:19;3.53;;;2.30;;
483;SDS011;228;48.922;12.198;2023-02-18T05:32:45;3.10;;;2.20;;
483;SDS011;228;48.922;12.198;2023-02-18T05:35:11;3.10;;;2.10;;
483;SDS011;228;48.922;12.198;2023-02-18T05:37:38;3.10;;;2.17;;
483;SDS011;228;48.922;12.198;2023-02-18T05:40:04;2.20;;;2.00;;
483;SDS011;228;48.922;12.198;2023-02-18T05:42:31;3.40;;;2.50;;
483;SDS011;228;48.922;12.198;2023-02-18T05:44:57;2.60;;;2.23;;
483;SDS011;228;48.922;12.198;2023-02-18T05:47:23;3.13;;;2.00;;
483;SDS011;228;48.922;12.198;2023-02-18T05:49:49;3.53;;;1.90;;
483;SDS011;228;48.922;12.198;2023-02-18T05:52:16;1.77;;;1.67;;
483;SDS011;228;48.922;12.198;2023-02-18T05:54:42;2.37;;;2.00;;
483;SDS011;228;48.922;12.198;2023-02-18T05:57:09;1.70;;;1.60;;
483;SDS011;228;48.922;12.198;2023-02-18T05:59:38;2.20;;;1.90;;
483;SDS011;228;48.922;12.198;2023-02-18T06:02:04;2.30;;;1.80;;
483;SDS011;228;48.922;12.198;2023-02-18T06:04:30;2.10;;;1.80;;
483;SDS011;228;48.922;12.198;2023-02-18T06:06:56;2.70;;;1.90;;
483;SDS011;228;48.922;12.198;2023-02-18T06:09:22;3.07;;;1.97;;
483;SDS011;228;48.922;12.198;2023-02-18T06:11:48;2.00;;;1.63;;
483;SDS011;228;48.922;12.198;2023-02-18T06:14:15;1.80;;;1.70;;
483;SDS011;228;48.922;12.198;2023-02-18T06:16:41;1.93;;;1.80;;
483;SDS011;228;48.922;12.198;2023-02-18T06:19:07;1.50;;;1.30;;
483;SDS011;228;48.922;12.198;2023-02-18T06:21:33;1.80;;;1.57;;
483;SDS011;228;48.922;12.198;2023-02-18T06:23:59;1.97;;;1.77;;
483;SDS011;228;48.922;12.198;2023-02-18T06:26:25;1.83;;;1.70;;
483;SDS011;228;48.922;12.198;2023-02-18T06:28:51;2.20;;;1.67;;
483;SDS011;228;48.922;12.198;2023-02-18T06:31:17;1.60;;;1.50;;
483;SDS011;228;48.922;12.198;2023-02-18T06:33:43;1.53;;;1.43;;
483;SDS011;228;48.922;12.198;2023-02-18T06:36:10;1.43;;;1.33;;
483;SDS011;228;48.922;12.198;2023-02-18T06:38:37;2.07;;;1.70;;
483;SDS011;228;48.922;12.198;2023-02-18T06:41:05;2.13;;;1.70;;
483;SDS011;228;48.922;12.198;2023-02-18T06:43:32;2.57;;;1.83;;
483;SDS011;228;48.922;12.198;2023-02-18T06:45:59;2.83;;;1.90;;
483;SDS011;228;48.922;12.198;2023-02-18T06:48:25;2.20;;;1.90;;
483;SDS011;228;48.922;12.198;2023-02-18T06:50:51;2.03;;;1.50;;
483;SDS011;228;48.922;12.198;2023-02-18T06:53:17;2.53;;;1.80;;
483;SDS011;228;48.922;12.198;2023-02-18T06:55:43;2.47;;;1.80;;
483;SDS011;228;48.922;12.198;2023-02-18T06:58:09;1.87;;;1.63;;
483;SDS011;228;48.922;12.198;2023-02-18T07:00:36;1.60;;;1.50;;
483;SDS011;228;48.922;12.198;2023-02-18T07:03:02;1.97;;;1.67;;
483;SDS011;228;48.922;12.198;2023-02-18T07:05:29;2.70;;;1.83;;
483;SDS011;228;48.922;12.198;2023-02-18T07:07:55;2.57;;;1.90;;
483;SDS011;228;48.922;12.198;2023-02-18T07:10:21;3.87;;;1.80;;
483;SDS011;228;48.922;12.198;2023-02-18T07:12:47;3.03;;;2.60;;
483;SDS011;228;48.922;12.198;2023-02-18T07:15:14;2.13;;;1.53;;
483;SDS011;228;48.922;12.198;2023-02-18T07:17:40;1.70;;;1.60;;
483;SDS011;228;48.922;12.198;2023-02-18T07:20:06;2.17;;;1.63;;
483;SDS011;228;48.922;12.198;2023-02-18T07:22:33;1.83;;;1.73;;
483;SDS011;228;48.922;12.198;2023-02-18T07:24:59;2.40;;;1.43;;
483;SDS011;228;48.922;12.198;2023-02-18T07:27:25;1.60;;;1.50;;
483;SDS011;228;48.922;12.198;2023-02-18T07:29:51;1.83;;;1.63;;
483;SDS011;228;48.922;12.198;2023-02-18T07:32:18;2.07;;;1.87;;
483;SDS011;228;48.922;12.198;2023-02-18T07:34:44;1.63;;;1.53;;
483;SDS011;228;48.922;12.198;2023-02-18T07:37:10;2.50;;;1.90;;
483;SDS011;228;48.922;12.198;2023-02-18T07:39:43;2.73;;;1.60;;
483;SDS011;228;48.922;12.198;2023-02-18T07:42:10;2.43;;;1.80;;
483;SDS011;228;48.922;12.198;2023-02-18T07:44:37;1.67;;;1.47;;
483;SDS011;228;48.922;12.198;2023-02-18T07:47:04;1.90;;;1.80;;
483;SDS011;228;48.922;12.198;2023-02-18T07:49:31;2.27;;;1.93;;
483;SDS011;228;48.922;12.198;2023-02-18T07:51:58;2.70;;;1.90;;
483;SDS011;228;48.922;12.198;2023-02-18T07:54:24;1.60;;;1.50;;
483;SDS011;228;48.922;12.198;2023-02-18T07:56:50;2.07;;;1.87;;
483;SDS011;228;48.922;12.198;2023-02-18T07:59:17;1.53;;;1.43;;
483;SDS011;228;48.922;12.198;2023-02-18T08:01:43;3.07;;;2.23;;
483;SDS011;228;48.922;12.198;2023-02-18T08:04:09;4.03;;;3.30;;
483;SDS011;228;48.922;12.198;2023-02-18T08:06:36;1.77;;;1.50;;
483;SDS011;228;48.922;12.198;2023-02-18T08:09:05;2.40;;;2.20;;
483;SDS011;228;48.922;12.198;2023-02-18T08:11:31;2.00;;;1.80;;
483;SDS011;228;48.922;12.198;2023-02-18T08:13:58;3.10;;;2.50;;
483;SDS011;228;48.922;12.198;2023-02-18T08:16:25;1.90;;;1.60;;
483;SDS011;228;48.922;12.198;2023-02-18T08:18:51;2.10;;;1.83;;
483;SDS011;228;48.922;12.198;2023-02-18T08:21:18;1.50;;;1.40;;
483;SDS011;228;48.922;12.198;2023-02-18T08:23:47;1.80;;;1.63;;
483;SDS011;228;48.922;12.198;2023-02-18T08:26:13;1.93;;;1.50;;
483;SDS011;228;48.922;12.198;2023-02-18T08:28:43;1.83;;;1.33;;
483;SDS011;228;48.922;12.198;2023-02-18T08:31:18;1.87;;;1.30;;
483;SDS011;228;48.922;12.198;2023-02-18T08:33:53;3.40;;;2.80;;
483;SDS011;228;48.922;12.198;2023-02-18T08:36:20;1.60;;;1.50;;
483;SDS011;228;48.922;12.198;2023-02-18T08:38:47;1.77;;;1.67;;
483;SDS011;228;48.922;12.198;2023-02-18T08:41:14;1.93;;;1.67;;
483;SDS011;228;48.922;12.198;2023-02-18T08:43:43;1.73;;;1.50;;
483;SDS011;228;48.922;12.198;2023-02-18T08:46:09;1.83;;;1.37;;
483;SDS011;228;48.922;12.198;2023-02-18T08:48:35;1.80;;;1.60;;
483;SDS011;228;48.922;12.198;2023-02-18T08:51:12;1.67;;;1.57;;
483;SDS011;228;48.922;12.198;2023-02-18T08:53:40;1.37;;;1.23;;
483;SDS011;228;48.922;12.198;2023-02-18T08:56:06;1.40;;;1.30;;
483;SDS011;228;48.922;12.198;2023-02-18T08:58:34;1.10;;;1.10;;
483;SDS011;228;48.922;12.198;2023-02-18T09:01:02;1.40;;;1.30;;
483;SDS011;228;48.922;12.198;2023-02-18T09:03:31;1.40;;;1.30;;
483;SDS011;228;48.922;12.198;2023-02-18T09:05:58;1.30;;;1.20;;
483;SDS011;228;48.922;12.198;2023-02-18T09:08:24;2.67;;;2.20;;
483;SDS011;228;48.922;12.198;2023-02-18T09:10:57;2.00;;;1.80;;
483;SDS011;228;48.922;12.198;2023-02-18T09:13:25;1.57;;;1.47;;
483;SDS011;228;48.922;12.198;2023-02-18T09:15:56;1.63;;;1.53;;
483;SDS011;228;48.922;12.198;2023-02-18T09:18:30;1.33;;;1.20;;
483;SDS011;228;48.922;12.198;2023-02-18T09:21:00;1.70;;;1.60;;
483;SDS011;228;48.922;12.198;2023-02-18T09:23:27;1.70;;;1.60;;
483;SDS011;228;48.922;12.198;2023-02-18T09:25:54;1.57;;;1.47;;
483;SDS011;228;48.922;12.198;2023-02-18T09:28:21;1.57;;;1.40;;
483;SDS011;228;48.922;12.198;2023-02-18T09:30:48;1.80;;;1.70;;
483;SDS011;228;48.922;12.198;2023-02-18T09:33:14;2.07;;;1.47;;
483;SDS011;228;48.922;12.198;2023-02-18T09:35:41;2.20;;;1.67;;
483;SDS011;228;48.922;12.198;2023-02-18T09:38:09;1.70;;;1.60;;
483;SDS011;228;48.922;12.198;2023-02-18T09:40:38;2.63;;;1.30;;
483;SDS011;228;48.922;12.198;2023-02-18T09:45:54;1.47;;;1.37;;
483;SDS011;228;48.922;12.198;2023-02-18T09:48:34;1.40;;;1.30;;
483;SDS011;228;48.922;12.198;2023-02-18T09:51:01;1.93;;;1.40;;
483;SDS011;228;48.922;12.198;2023-02-18T09:53:28;2.30;;;1.50;;
483;SDS011;228;48.922;12.198;2023-02-18T09:55:57;1.97;;;1.50;;
483;SDS011;228;48.922;12.198;2023-02-18T09:58:25;1.50;;;1.40;;
483;SDS011;228;48.922;12.198;2023-02-18T10:03:37;2.00;;;1.50;;
483;SDS011;228;48.922;12.198;2023-02-18T10:06:05;1.60;;;1.43;;
483;SDS011;228;48.922;12.198;2023-02-18T10:08:50;1.30;;;1.20;;
483;SDS011;228;48.922;12.198;2023-02-18T10:11:29;5.77;;;3.80;;
483;SDS011;228;48.922;12.198;2023-02-18T10:13:59;1.70;;;1.60;;
483;SDS011;228;48.922;12.198;2023-02-18T10:16:27;4.03;;;1.60;;
483;SDS011;228;48.922;12.198;2023-02-18T10:18:58;2.17;;;1.30;;
483;SDS011;228;48.922;12.198;2023-02-18T10:21:32;1.47;;;1.37;;
483;SDS011;228;48.922;12.198;2023-02-18T10:26:46;1.90;;;1.70;;
483;SDS011;228;48.922;12.198;2023-02-18T10:29:13;1.43;;;1.33;;
483;SDS011;228;48.922;12.198;2023-02-18T10:31:44;1.60;;;1.50;;
483;SDS011;228;48.922;12.198;2023-02-18T10:40:40;1.47;;;1.33;;
483;SDS011;228;48.922;12.198;2023-02-18T10:43:25;1.60;;;1.40;;
483;SDS011;228;48.922;12.198;2023-02-18T10:46:02;1.40;;;1.30;;
483;SDS011;228;48.922;12.198;2023-02-18T10:51:34;1.97;;;1.57;;
483;SDS011;228;48.922;12.198;2023-02-18T10:54:05;1.60;;;1.40;;
483;SDS011;228;48.922;12.198;2023-02-18T10:56:34;1.90;;;1.50;;
483;SDS011;228;48.922;12.198;2023-02-18T11:01:55;1.60;;;1.33;;
483;SDS011;228;48.922;12.198;2023-02-18T11:04:33;2.00;;;1.50;;
483;SDS011;228;48.922;12.198;2023-02-18T11:07:11;2.37;;;1.53;;
483;SDS011;228;48.922;12.198;2023-02-18T11:12:21;1.50;;;1.40;;
483;SDS011;228;48.922;12.198;2023-02-18T11:15:36;1.50;;;1.37;;
483;SDS011;228;48.922;12.198;2023-02-18T11:17:41;2.40;;;1.60;;
483;SDS011;228;48.922;12.198;2023-02-18T11:20:32;1.87;;;1.77;;
483;SDS011;228;48.922;12.198;2023-02-18T11:31:07;1.43;;;1.33;;
483;SDS011;228;48.922;12.198;2023-02-18T11:33:41;1.63;;;1.30;;
483;SDS011;228;48.922;12.198;2023-02-18T11:41:57;1.70;;;1.30;;
483;SDS011;228;48.922;12.198;2023-02-18T11:49:42;1.80;;;1.60;;
483;SDS011;228;48.922;12.198;2023-02-18T11:55:05;1.20;;;1.10;;
483;SDS011;228;48.922;12.198;2023-02-18T11:57:33;2.03;;;1.50;;
483;SDS011;228;48.922;12.198;2023-02-18T12:00:04;1.43;;;1.33;;
483;SDS011;228;48.922;12.198;2023-02-18T12:06:11;1.30;;;1.20;;
483;SDS011;228;48.922;12.198;2023-02-18T12:08:47;1.40;;;1.30;;
483;SDS011;228;48.922;12.198;2023-02-18T12:11:36;1.37;;;1.27;;
483;SDS011;228;48.922;12.198;2023-02-18T12:14:15;1.40;;;1.30;;
483;SDS011;228;48.922;12.198;2023-02-18T12:43:12;1.30;;;1.20;;
483;SDS011;228;48.922;12.198;2023-02-18T13:00:56;0.90;;;0.90;;
483;SDS011;228;48.922;12.198;2023-02-18T13:14:52;1.03;;;1.03;;
483;SDS011;228;48.922;12.198;2023-02-18T13:17:31;0.97;;;0.97;;
483;SDS011;228;48.922;12.198;2023-02-18T13:20:03;1.00;;;1.00;;
483;SDS011;228;48.922;12.198;2023-02-18T13:22:50;1.47;;;1.30;;
483;SDS011;228;48.922;12.198;2023-02-18T13:25:17;1.60;;;1.50;;
483;SDS011;228;48.922;12.198;2023-02-18T13:39:38;1.30;;;1.20;;
483;SDS011;228;48.922;12.198;2023-02-18T13:45:01;1.20;;;1.10;;
483;SDS011;228;48.922;12.198;2023-02-18T13:58:33;1.17;;;1.10;;
483;SDS011;228;48.922;12.198;2023-02-18T14:04:35;1.27;;;1.10;;
483;SDS011;228;48.922;12.198;2023-02-18T14:10:00;1.00;;;1.00;;
483;SDS011;228;48.922;12.198;2023-02-18T14:12:39;1.17;;;1.10;;
483;SDS011;228;48.922;12.198;2023-02-18T14:37:09;1.00;;;1.00;;
483;SDS011;228;48.922;12.198;2023-02-18T14:43:22;1.30;;;1.20;;
483;SDS011;228;48.922;12.198;2023-02-18T14:49:50;1.13;;;1.13;;
483;SDS011;228;48.922;12.198;2023-02-18T14:54:42;1.43;;;1.33;;
483;SDS011;228;48.922;12.198;2023-02-18T14:57:13;1.13;;;1.03;;
483;SDS011;228;48.922;12.198;2023-02-18T14:59:42;1.20;;;1.10;;
483;SDS011;228;48.922;12.198;2023-02-18T15:02:19;1.20;;;1.10;;
483;SDS011;228;48.922;12.198;2023-02-18T15:04:49;1.30;;;1.20;;
483;SDS011;228;48.922;12.198;2023-02-18T15:07:17;1.67;;;1.57;;
483;SDS011;228;48.922;12.198;2023-02-18T15:09:52;1.40;;;1.30;;
483;SDS011;228;48.922;12.198;2023-02-18T15:12:20;1.20;;;1.10;;
483;SDS011;228;48.922;12.198;2023-02-18T15:14:50;1.30;;;1.20;;
483;SDS011;228;48.922;12.198;2023-02-18T15:17:21;1.77;;;1.20;;
483;SDS011;228;48.922;12.198;2023-02-18T15:19:55;6.27;;;1.30;;
483;SDS011;228;48.922;12.198;2023-02-18T15:22:25;1.00;;;1.00;;
483;SDS011;228;48.922;12.198;2023-02-18T15:24:58;1.43;;;1.20;;
483;SDS011;228;48.922;12.198;2023-02-18T15:27:41;2.13;;;1.30;;
483;SDS011;228;48.922;12.198;2023-02-18T15:32:56;2.10;;;1.00;;
483;SDS011;228;48.922;12.198;2023-02-18T15:35:26;1.30;;;1.23;;
483;SDS011;228;48.922;12.198;2023-02-18T15:37:58;6.60;;;1.30;;
483;SDS011;228;48.922;12.198;2023-02-18T15:40:29;2.07;;;1.23;;
483;SDS011;228;48.922;12.198;2023-02-18T15:42:59;1.40;;;1.17;;
483;SDS011;228;48.922;12.198;2023-02-18T15:45:32;1.43;;;1.27;;
483;SDS011;228;48.922;12.198;2023-02-18T15:48:01;1.10;;;1.10;;
483;SDS011;228;48.922;12.198;2023-02-18T15:50:34;1.80;;;1.40;;
483;SDS011;228;48.922;12.198;2023-02-18T15:53:06;1.30;;;1.20;;
483;SDS011;228;48.922;12.198;2023-02-18T15:55:40;2.27;;;1.17;;
483;SDS011;228;48.922;12.198;2023-02-18T15:58:11;1.40;;;1.30;;
483;SDS011;228;48.922;12.198;2023-02-18T16:00:49;1.30;;;1.20;;
483;SDS011;228;48.922;12.198;2023-02-18T16:03:21;1.83;;;1.30;;
483;SDS011;228;48.922;12.198;2023-02-18T16:09:00;1.30;;;1.20;;
483;SDS011;228;48.922;12.198;2023-02-18T16:11:40;1.20;;;1.10;;
483;SDS011;228;48.922;12.198;2023-02-18T16:19:45;3.80;;;1.50;;
483;SDS011;228;48.922;12.198;2023-02-18T16:22:22;1.27;;;1.20;;
483;SDS011;228;48.922;12.198;2023-02-18T16:25:16;1.53;;;1.33;;
483;SDS011;228;48.922;12.198;2023-02-18T16:30:48;1.30;;;1.20;;
483;SDS011;228;48.922;12.198;2023-02-18T16:33:17;1.20;;;1.10;;
483;SDS011;228;48.922;12.198;2023-02-18T16:35:43;2.70;;;1.40;;
483;SDS011;228;48.922;12.198;2023-02-18T16:38:20;2.00;;;1.30;;
483;SDS011;228;48.922;12.198;2023-02-18T16:40:49;2.60;;;1.70;;
483;SDS011;228;48.922;12.198;2023-02-18T16:43:21;1.73;;;1.60;;
483;SDS011;228;48.922;12.198;2023-02-18T16:45:56;2.07;;;1.60;;
483;SDS011;228;48.922;12.198;2023-02-18T16:48:31;1.33;;;1.23;;
483;SDS011;228;48.922;12.198;2023-02-18T16:51:13;2.13;;;1.50;;
483;SDS011;228;48.922;12.198;2023-02-18T16:53:54;1.40;;;1.30;;
483;SDS011;228;48.922;12.198;2023-02-18T16:56:21;2.13;;;1.40;;
483;SDS011;228;48.922;12.198;2023-02-18T16:58:51;1.70;;;1.50;;
483;SDS011;228;48.922;12.198;2023-02-18T17:01:20;3.03;;;1.70;;
483;SDS011;228;48.922;12.198;2023-02-18T17:04:05;3.87;;;1.77;;
483;SDS011;228;48.922;12.198;2023-02-18T17:06:35;1.97;;;1.50;;
483;SDS011;228;48.922;12.198;2023-02-18T17:09:14;2.00;;;1.80;;
483;SDS011;228;48.922;12.198;2023-02-18T17:11:50;2.40;;;1.80;;
483;SDS011;228;48.922;12.198;2023-02-18T17:14:19;1.50;;;1.40;;
483;SDS011;228;48.922;12.198;2023-02-18T17:16:47;2.00;;;1.80;;
483;SDS011;228;48.922;12.198;2023-02-18T17:19:16;2.03;;;1.87;;
483;SDS011;228;48.922;12.198;2023-02-18T17:21:42;2.83;;;2.30;;
483;SDS011;228;48.922;12.198;2023-02-18T17:24:12;2.90;;;2.30;;
483;SDS011;228;48.922;12.198;2023-02-18T17:26:39;2.67;;;2.10;;
483;SDS011;228;48.922;12.198;2023-02-18T17:29:06;2.17;;;1.97;;
483;SDS011;228;48.922;12.198;2023-02-18T17:31:33;2.97;;;2.00;;
483;SDS011;228;48.922;12.198;2023-02-18T17:34:06;2.90;;;2.27;;
483;SDS011;228;48.922;12.198;2023-02-18T17:36:36;2.23;;;2.03;;
483;SDS011;228;48.922;12.198;2023-02-18T17:39:05;7.00;;;5.33;;
483;SDS011;228;48.922;12.198;2023-02-18T17:41:39;9.67;;;5.40;;
483;SDS011;228;48.922;12.198;2023-02-18T17:44:24;7.67;;;4.43;;
483;SDS011;228;48.922;12.198;2023-02-18T17:46:50;10.80;;;6.20;;
483;SDS011;228;48.922;12.198;2023-02-18T17:49:17;6.63;;;3.73;;
483;SDS011;228;48.922;12.198;2023-02-18T17:51:43;8.10;;;4.63;;
483;SDS011;228;48.922;12.198;2023-02-18T17:54:10;5.83;;;3.93;;
483;SDS011;228;48.922;12.198;2023-02-18T17:56:41;3.10;;;2.80;;
483;SDS011;228;48.922;12.198;2023-02-18T17:59:07;2.53;;;2.10;;
483;SDS011;228;48.922;12.198;2023-02-18T18:01:33;3.83;;;2.53;;
483;SDS011;228;48.922;12.198;2023-02-18T18:04:00;2.93;;;2.20;;
483;SDS011;228;48.922;12.198;2023-02-18T18:06:26;2.40;;;1.97;;
483;SDS011;228;48.922;12.198;2023-02-18T18:08:52;2.00;;;1.80;;
483;SDS011;228;48.922;12.198;2023-02-18T18:11:19;2.33;;;2.10;;
483;SDS011;228;48.922;12.198;2023-02-18T18:13:47;3.03;;;2.00;;
483;SDS011;228;48.922;12.198;2023-02-18T18:16:15;2.97;;;2.30;;
483;SDS011;228;48.922;12.198;2023-02-18T18:18:42;2.83;;;2.33;;
483;SDS011;228;48.922;12.198;2023-02-18T18:21:42;2.73;;;2.20;;
483;SDS011;228;48.922;12.198;2023-02-18T18:24:01;3.10;;;2.50;;
483;SDS011;228;48.922;12.198;2023-02-18T18:26:28;2.60;;;2.00;;
483;SDS011;228;48.922;12.198;2023-02-18T18:28:54;2.67;;;2.40;;
483;SDS011;228;48.922;12.198;2023-02-18T18:31:20;2.97;;;2.17;;
483;SDS011;228;48.922;12.198;2023-02-18T18:33:47;2.50;;;2.17;;
483;SDS011;228;48.922;12.198;2023-02-18T18:36:17;2.50;;;2.13;;
483;SDS011;228;48.922;12.198;2023-02-18T18:38:45;2.77;;;2.10;;
483;SDS011;228;48.922;12.198;2023-02-18T18:41:15;4.33;;;2.10;;
483;SDS011;228;48.922;12.198;2023-02-18T18:43:44;3.90;;;2.97;;
483;SDS011;228;48.922;12.198;2023-02-18T18:46:11;3.07;;;2.47;;
483;SDS011;228;48.922;12.198;2023-02-18T18:48:38;5.00;;;2.23;;
483;SDS011;228;48.922;12.198;2023-02-18T18:51:04;2.67;;;2.00;;
483;SDS011;228;48.922;12.198;2023-02-18T18:53:31;3.57;;;2.10;;
483;SDS011;228;48.922;12.198;2023-02-18T18:56:01;3.47;;;2.17;;
483;SDS011;228;48.922;12.198;2023-02-18T18:58:30;3.47;;;2.33;;
483;SDS011;228;48.922;12.198;2023-02-18T19:00:58;2.23;;;2.03;;
483;SDS011;228;48.922;12.198;2023-02-18T19:03:29;3.33;;;2.10;;
483;SDS011;228;48.922;12.198;2023-02-18T19:05:58;3.13;;;2.23;;
483;SDS011;228;48.922;12.198;2023-02-18T19:08:24;2.90;;;2.60;;
483;SDS011;228;48.922;12.198;2023-02-18T19:10:52;3.07;;;2.53;;
483;SDS011;228;48.922;12.198;2023-02-18T19:13:21;3.07;;;2.70;;
483;SDS011;228;48.922;12.198;2023-02-18T19:15:59;2.93;;;2.43;;
483;SDS011;228;48.922;12.198;2023-02-18T19:18:29;2.83;;;2.50;;
483;SDS011;228;48.922;12.198;2023-02-18T19:20:57;5.57;;;2.60;;
483;SDS011;228;48.922;12.198;2023-02-18T19:23:28;3.23;;;2.57;;
483;SDS011;228;48.922;12.198;2023-02-18T19:25:54;3.33;;;2.27;;
483;SDS011;228;48.922;12.198;2023-02-18T19:28:21;2.87;;;2.33;;